createdAt,value
2023-01-13T00:00:31.524Z,62.48
2023-01-13T00:05:36.215Z,62.53
2023-01-13T00:10:39.423Z,62.74
2023-01-13T00:15:42.327Z,63.30
2023-01-13T00:20:46.588Z,63.35
2023-01-13T00:25:49.327Z,63.42
2023-01-13T00:30:52.343Z,63.99
2023-01-13T00:36:01.071Z,63.88
2023-01-13T00:41:05.463Z,64.13
2023-01-13T00:46:10.064Z,64.32
2023-01-13T00:51:17.068Z,64.55
2023-01-13T00:56:30.561Z,64.80
2023-01-13T01:01:41.712Z,64.82
2023-01-13T01:06:45.947Z,65.14
2023-01-13T01:11:48.754Z,65.41
2023-01-13T01:16:51.680Z,65.86
2023-01-13T01:21:55.913Z,65.76
2023-01-13T01:26:58.725Z,66.13
2023-01-13T01:32:01.510Z,66.44
2023-01-13T01:37:05.804Z,66.44
2023-01-13T01:42:28.223Z,66.76
2023-01-13T01:47:32.389Z,66.67
2023-01-13T01:52:38.783Z,67.06
2023-01-13T01:57:45.357Z,67.06
2023-01-13T02:02:49.628Z,67.33
2023-01-13T02:07:56.148Z,67.24
2023-01-13T02:13:01.229Z,67.56
2023-01-13T02:18:27.327Z,67.81
2023-01-13T02:24:17.070Z,67.87
2023-01-13T02:30:12.715Z,68.17
2023-01-13T02:35:21.449Z,68.46
2023-01-13T02:40:27.193Z,68.72
2023-01-13T02:45:33.522Z,68.86
2023-01-13T02:50:40.554Z,69.12
2023-01-13T02:55:46.486Z,69.29
2023-01-13T03:00:50.579Z,69.28
2023-01-13T03:05:55.391Z,69.44
2023-01-13T03:11:03.757Z,69.90
2023-01-13T03:16:12.875Z,70.16
2023-01-13T03:21:21.168Z,70.00
2023-01-13T03:26:33.076Z,70.19
2023-01-13T03:31:42.380Z,70.61
2023-01-13T03:36:45.348Z,70.42
2023-01-13T03:41:52.977Z,70.81
2023-01-13T03:47:04.274Z,70.80
2023-01-13T03:52:09.828Z,71.07
2023-01-13T03:57:15.684Z,71.13
2023-01-13T04:02:23.630Z,71.09
2023-01-13T04:07:34.038Z,71.40
2023-01-13T04:12:53.624Z,71.59
2023-01-13T04:18:03.315Z,71.55
2023-01-13T04:23:05.968Z,71.85
2023-01-13T04:28:08.824Z,71.87
2023-01-13T04:33:13.564Z,71.68
2023-01-13T04:38:18.577Z,72.25
2023-01-13T04:43:21.248Z,72.32
2023-01-13T04:48:25.315Z,72.27
2023-01-13T04:53:27.965Z,72.68
2023-01-13T04:58:30.609Z,72.64
2023-01-13T05:03:34.679Z,72.82
2023-01-13T05:08:37.478Z,72.90
2023-01-13T05:13:57.685Z,72.97
2023-01-13T05:19:01.720Z,72.67
2023-01-13T05:24:22.131Z,73.07
2023-01-13T05:29:24.888Z,73.14
2023-01-13T05:34:28.976Z,72.93
2023-01-13T05:39:51.951Z,72.96
2023-01-13T05:44:54.624Z,73.33
2023-01-13T05:49:58.665Z,73.04
2023-01-13T05:55:01.321Z,73.05
2023-01-13T06:00:04.743Z,73.13
2023-01-13T06:05:15.787Z,73.52
2023-01-13T06:10:18.815Z,73.34
2023-01-13T06:15:22.022Z,73.44
2023-01-13T06:20:26.453Z,73.67
2023-01-13T06:25:39.518Z,73.63
2023-01-13T06:30:44.441Z,73.66
2023-01-13T06:35:52.405Z,73.51
2023-01-13T06:40:55.386Z,73.95
2023-01-13T06:45:58.125Z,73.99
2023-01-13T06:51:02.147Z,73.78
2023-01-13T06:56:04.998Z,73.68
2023-01-13T07:01:07.870Z,73.88
2023-01-13T07:06:12.019Z,73.93
2023-01-13T07:11:14.767Z,73.98
2023-01-13T07:16:17.517Z,74.06
2023-01-13T07:21:22.042Z,74.29
2023-01-13T07:26:24.738Z,74.45
2023-01-13T07:31:27.552Z,74.11
2023-01-13T07:36:31.711Z,74.17
2023-01-13T07:41:52.212Z,74.40
2023-01-13T07:46:54.861Z,74.62
2023-01-13T07:51:58.871Z,74.41
2023-01-13T07:57:01.580Z,74.65
2023-01-13T08:02:04.471Z,74.31
2023-01-13T08:07:08.676Z,72.84
2023-01-13T08:12:29.059Z,71.41
2023-01-13T08:17:31.804Z,69.77
2023-01-13T08:22:35.882Z,68.32
2023-01-13T08:27:39.868Z,67.38
2023-01-13T08:32:44.766Z,66.61
2023-01-13T08:37:49.172Z,66.06
2023-01-13T08:42:53.803Z,65.69
2023-01-13T08:47:57.932Z,65.29
2023-01-13T08:53:02.090Z,64.74
2023-01-13T08:58:15.274Z,64.90
2023-01-13T09:03:18.688Z,64.56
2023-01-13T09:08:22.708Z,64.61
2023-01-13T09:13:25.570Z,64.76
2023-01-13T09:18:28.283Z,64.64
2023-01-13T09:23:32.338Z,64.35
2023-01-13T09:28:35.005Z,64.28
2023-01-13T09:34:06.785Z,64.14
2023-01-13T09:39:10.818Z,64.18
2023-01-13T09:44:18.912Z,63.96
2023-01-13T09:49:23.904Z,64.46
2023-01-13T09:54:33.030Z,65.01
2023-01-13T09:59:36.819Z,64.24
2023-01-13T10:04:39.609Z,63.39
2023-01-13T10:09:48.938Z,62.23
2023-01-13T10:14:54.291Z,61.74
2023-01-13T10:20:00.200Z,60.75
2023-01-13T10:25:20.902Z,59.83
2023-01-13T10:30:31.043Z,59.28
2023-01-13T10:35:53.657Z,58.43
2023-01-13T10:40:59.459Z,57.79
2023-01-13T10:46:05.718Z,57.52
2023-01-13T10:51:23.226Z,57.40
2023-01-13T10:56:30.905Z,57.35
2023-01-13T11:01:33.647Z,57.97
2023-01-13T11:06:37.599Z,57.10
2023-01-13T11:11:44.766Z,56.76
2023-01-13T11:16:53.788Z,56.80
2023-01-13T11:22:01.775Z,56.14
2023-01-13T11:27:09.389Z,55.92
2023-01-13T11:32:14.441Z,55.92
2023-01-13T11:37:20.206Z,55.92
2023-01-13T11:42:27.666Z,56.20
2023-01-13T11:47:30.788Z,56.47
2023-01-13T11:52:46.897Z,55.84
2023-01-13T11:58:18.129Z,55.80
2023-01-13T12:03:25.860Z,55.43
2023-01-13T12:08:47.045Z,55.17
2023-01-13T12:14:02.317Z,55.21
2023-01-13T12:19:18.186Z,55.31
2023-01-13T12:24:27.095Z,55.38
2023-01-13T12:29:34.138Z,55.91
2023-01-13T12:34:46.625Z,55.65
2023-01-13T12:40:05.670Z,55.36
2023-01-13T12:45:22.357Z,55.04
2023-01-13T12:50:42.238Z,54.81
2023-01-13T12:55:45.062Z,54.59
2023-01-13T13:01:13.720Z,54.81
2023-01-13T13:06:19.859Z,54.85
2023-01-13T13:11:56.115Z,55.28
2023-01-13T13:17:01.056Z,55.60
2023-01-13T13:22:43.918Z,55.08
2023-01-13T13:27:49.898Z,55.14
2023-01-13T13:33:14.548Z,54.91
2023-01-13T13:38:42.963Z,54.80
2023-01-13T13:44:06.626Z,55.03
2023-01-13T13:49:11.783Z,55.48
2023-01-13T13:54:16.327Z,55.88
2023-01-13T13:59:21.056Z,55.58
2023-01-13T14:04:26.502Z,55.55
2023-01-13T14:09:39.651Z,55.48
2023-01-13T14:14:44.611Z,55.39
2023-01-13T14:19:54.238Z,55.75
2023-01-13T14:24:58.404Z,55.80
2023-01-13T14:30:01.933Z,55.62
2023-01-13T14:35:09.045Z,56.10
2023-01-13T14:40:45.513Z,56.41
2023-01-13T14:45:57.079Z,57.58
2023-01-13T14:51:02.601Z,57.75
2023-01-13T14:56:40.532Z,57.24
2023-01-13T15:01:43.621Z,56.25
2023-01-13T15:06:52.479Z,55.57
2023-01-13T15:11:56.330Z,55.25
2023-01-13T15:16:59.096Z,54.84
2023-01-13T15:22:03.285Z,54.91
2023-01-13T15:27:17.731Z,54.71
2023-01-13T15:32:21.636Z,54.79
2023-01-13T15:37:25.704Z,54.77
2023-01-13T15:42:45.978Z,55.57
2023-01-13T15:47:48.686Z,56.10
2023-01-13T15:52:52.816Z,55.63
2023-01-13T15:57:55.515Z,55.57
2023-01-13T16:02:59.712Z,55.35
2023-01-13T16:08:03.820Z,55.03
2023-01-13T16:13:06.519Z,54.68
2023-01-13T16:18:15.865Z,55.07
2023-01-13T16:23:20.808Z,55.05
2023-01-13T16:28:26.725Z,55.24
2023-01-13T16:33:29.658Z,55.99
2023-01-13T16:38:33.750Z,55.34
2023-01-13T16:43:36.818Z,55.12
2023-01-13T16:48:39.710Z,54.88
2023-01-13T16:53:43.889Z,54.88
2023-01-13T16:58:47.034Z,54.94
2023-01-13T17:03:51.433Z,54.83
2023-01-13T17:08:57.489Z,54.90
2023-01-13T17:14:00.707Z,55.37
2023-01-13T17:19:18.347Z,55.45
2023-01-13T17:24:25.978Z,55.13
2023-01-13T17:29:29.532Z,55.24
2023-01-13T17:34:32.574Z,55.14
2023-01-13T17:39:37.917Z,54.88
2023-01-13T17:44:41.766Z,54.96
2023-01-13T17:49:44.456Z,55.02
2023-01-13T17:54:48.661Z,55.28
2023-01-13T17:59:51.563Z,55.75
2023-01-13T18:04:54.298Z,55.57
2023-01-13T18:09:58.411Z,55.48
2023-01-13T18:15:01.136Z,55.74
2023-01-13T18:20:21.428Z,55.63
2023-01-13T18:25:43.213Z,55.50
2023-01-13T18:30:46.006Z,55.74
2023-01-13T18:35:48.913Z,55.78
2023-01-13T18:40:53.055Z,56.08
2023-01-13T18:45:55.929Z,55.73
2023-01-13T18:50:58.711Z,55.28
2023-01-13T18:56:05.455Z,55.31
2023-01-13T19:01:37.043Z,55.37
2023-01-13T19:06:47.633Z,55.29
2023-01-13T19:11:51.964Z,55.46
2023-01-13T19:16:54.731Z,55.32
2023-01-13T19:21:57.518Z,55.75
2023-01-13T19:27:01.695Z,55.91
2023-01-13T19:32:06.033Z,55.11
2023-01-13T19:37:09.055Z,55.19
2023-01-13T19:42:31.134Z,54.89
2023-01-13T19:47:34.060Z,55.29
2023-01-13T19:52:36.791Z,55.18
2023-01-13T19:57:41.144Z,55.54
2023-01-13T20:02:48.947Z,55.54
2023-01-13T20:07:51.933Z,56.02
2023-01-13T20:12:56.055Z,55.88
2023-01-13T20:18:00.445Z,55.82
2023-01-13T20:23:03.165Z,55.46
2023-01-13T20:28:07.356Z,55.30
2023-01-13T20:33:10.095Z,55.24
2023-01-13T20:38:13.007Z,55.36
2023-01-13T20:43:17.754Z,55.88
2023-01-13T20:48:20.805Z,55.61
2023-01-13T20:53:23.541Z,55.96
2023-01-13T20:58:27.601Z,56.58
2023-01-13T21:03:30.432Z,56.13
2023-01-13T21:08:33.193Z,55.49
2023-01-13T21:13:54.938Z,55.46
2023-01-13T21:19:10.660Z,55.38
2023-01-13T21:24:13.962Z,55.19
2023-01-13T21:29:18.063Z,55.12
2023-01-13T21:34:20.893Z,54.94
2023-01-13T21:39:23.629Z,55.29
2023-01-13T21:44:45.214Z,55.35
2023-01-13T21:49:47.937Z,55.84
2023-01-13T21:55:08.146Z,55.80
2023-01-13T22:00:13.717Z,56.19
2023-01-13T22:05:18.801Z,55.89
2023-01-13T22:10:23.484Z,55.91
2023-01-13T22:15:30.577Z,56.30
2023-01-13T22:20:33.305Z,56.17
2023-01-13T22:25:36.054Z,55.70
2023-01-13T22:30:40.288Z,55.92
2023-01-13T22:35:42.970Z,56.30
2023-01-13T22:40:45.650Z,56.17
2023-01-13T22:45:58.663Z,56.32
2023-01-13T22:51:05.583Z,56.04
2023-01-13T22:56:08.937Z,55.95
2023-01-13T23:01:14.409Z,55.86
2023-01-13T23:06:18.626Z,56.00
2023-01-13T23:11:23.448Z,56.24
2023-01-13T23:16:28.809Z,56.44
2023-01-13T23:21:33.253Z,56.79
2023-01-13T23:26:36.414Z,56.66
2023-01-13T23:31:41.018Z,56.81
2023-01-13T23:36:44.436Z,57.11
2023-01-13T23:41:47.205Z,57.36
2023-01-13T23:46:51.240Z,57.86
2023-01-13T23:51:54.153Z,58.32
2023-01-13T23:56:57.324Z,58.60
